sensor_id;sensor_type;location;lat;lon;timestamp;P1;durP1;ratioP1;P2;durP2;ratioP2
24389;SDS011;12510;56.468;-3.004;2023-04-19T00:00:03;8.05;;;6.93;;
24389;SDS011;12510;56.468;-3.004;2023-04-19T00:02:33;9.65;;;7.05;;
24389;SDS011;12510;56.468;-3.004;2023-04-19T00:05:00;11.18;;;7.03;;
24389;SDS011;12510;56.468;-3.004;2023-04-19T00:07:27;12.10;;;7.30;;
24389;SDS011;12510;56.468;-3.004;2023-04-19T00:09:53;12.07;;;7.00;;
24389;SDS011;12510;56.468;-3.004;2023-04-19T00:12:20;10.43;;;6.85;;
24389;SDS011;12510;56.468;-3.004;2023-04-19T00:14:46;9.77;;;7.85;;
24389;SDS011;12510;56.468;-3.004;2023-04-19T00:17:13;7.78;;;6.82;;
24389;SDS011;12510;56.468;-3.004;2023-04-19T00:19:39;12.15;;;6.55;;
24389;SDS011;12510;56.468;-3.004;2023-04-19T00:22:06;7.75;;;6.82;;
24389;SDS011;12510;56.468;-3.004;2023-04-19T00:24:32;10.02;;;6.70;;
24389;SDS011;12510;56.468;-3.004;2023-04-19T00:26:59;10.30;;;7.30;;
24389;SDS011;12510;56.468;-3.004;2023-04-19T00:29:26;7.88;;;6.80;;
24389;SDS011;12510;56.468;-3.004;2023-04-19T00:31:53;7.28;;;6.38;;
24389;SDS011;12510;56.468;-3.004;2023-04-19T00:34:19;11.95;;;6.93;;
24389;SDS011;12510;56.468;-3.004;2023-04-19T00:36:46;10.68;;;6.85;;
24389;SDS011;12510;56.468;-3.004;2023-04-19T00:39:12;6.97;;;6.13;;
24389;SDS011;12510;56.468;-3.004;2023-04-19T00:41:41;8.10;;;6.05;;
24389;SDS011;12510;56.468;-3.004;2023-04-19T00:44:08;9.98;;;6.93;;
24389;SDS011;12510;56.468;-3.004;2023-04-19T00:46:35;8.02;;;6.63;;
24389;SDS011;12510;56.468;-3.004;2023-04-19T00:49:05;7.53;;;6.25;;
24389;SDS011;12510;56.468;-3.004;2023-04-19T00:51:32;12.10;;;7.22;;
24389;SDS011;12510;56.468;-3.004;2023-04-19T00:53:59;7.18;;;5.82;;
24389;SDS011;12510;56.468;-3.004;2023-04-19T00:56:28;8.63;;;6.45;;
24389;SDS011;12510;56.468;-3.004;2023-04-19T00:58:55;7.60;;;6.07;;
24389;SDS011;12510;56.468;-3.004;2023-04-19T01:01:22;8.85;;;6.32;;
24389;SDS011;12510;56.468;-3.004;2023-04-19T01:03:51;7.27;;;6.20;;
24389;SDS011;12510;56.468;-3.004;2023-04-19T01:06:20;9.20;;;7.05;;
24389;SDS011;12510;56.468;-3.004;2023-04-19T01:08:47;14.43;;;7.90;;
24389;SDS011;12510;56.468;-3.004;2023-04-19T01:11:14;8.02;;;6.25;;
24389;SDS011;12510;56.468;-3.004;2023-04-19T01:13:43;8.47;;;6.83;;
24389;SDS011;12510;56.468;-3.004;2023-04-19T01:16:09;7.72;;;6.03;;
24389;SDS011;12510;56.468;-3.004;2023-04-19T01:18:36;8.30;;;6.10;;
24389;SDS011;12510;56.468;-3.004;2023-04-19T01:21:04;13.60;;;6.55;;
24389;SDS011;12510;56.468;-3.004;2023-04-19T01:23:32;8.30;;;6.55;;
24389;SDS011;12510;56.468;-3.004;2023-04-19T01:25:58;8.07;;;6.40;;
24389;SDS011;12510;56.468;-3.004;2023-04-19T01:28:27;8.30;;;6.22;;
24389;SDS011;12510;56.468;-3.004;2023-04-19T01:30:54;8.55;;;6.90;;
24389;SDS011;12510;56.468;-3.004;2023-04-19T01:33:20;8.02;;;6.38;;
24389;SDS011;12510;56.468;-3.004;2023-04-19T01:35:48;7.47;;;6.45;;
24389;SDS011;12510;56.468;-3.004;2023-04-19T01:38:15;11.25;;;6.68;;
24389;SDS011;12510;56.468;-3.004;2023-04-19T01:40:42;7.55;;;6.80;;
24389;SDS011;12510;56.468;-3.004;2023-04-19T01:43:11;8.50;;;5.95;;
24389;SDS011;12510;56.468;-3.004;2023-04-19T01:45:38;6.95;;;6.25;;
24389;SDS011;12510;56.468;-3.004;2023-04-19T01:48:05;7.10;;;6.40;;
24389;SDS011;12510;56.468;-3.004;2023-04-19T01:50:33;11.77;;;7.15;;
24389;SDS011;12510;56.468;-3.004;2023-04-19T01:53:02;8.30;;;6.88;;
24389;SDS011;12510;56.468;-3.004;2023-04-19T01:55:29;9.75;;;7.82;;
24389;SDS011;12510;56.468;-3.004;2023-04-19T01:57:56;8.90;;;7.13;;
24389;SDS011;12510;56.468;-3.004;2023-04-19T02:00:25;7.63;;;6.78;;
24389;SDS011;12510;56.468;-3.004;2023-04-19T02:02:52;11.68;;;6.57;;
24389;SDS011;12510;56.468;-3.004;2023-04-19T02:05:18;7.60;;;6.80;;
24389;SDS011;12510;56.468;-3.004;2023-04-19T02:07:45;10.65;;;6.63;;
24389;SDS011;12510;56.468;-3.004;2023-04-19T02:10:11;11.55;;;7.25;;
24389;SDS011;12510;56.468;-3.004;2023-04-19T02:12:40;9.18;;;5.88;;
24389;SDS011;12510;56.468;-3.004;2023-04-19T02:15:07;9.98;;;7.82;;
24389;SDS011;12510;56.468;-3.004;2023-04-19T02:17:34;8.07;;;6.43;;
24389;SDS011;12510;56.468;-3.004;2023-04-19T02:20:01;9.02;;;6.70;;
24389;SDS011;12510;56.468;-3.004;2023-04-19T02:22:30;10.55;;;5.80;;
24389;SDS011;12510;56.468;-3.004;2023-04-19T02:24:56;8.45;;;6.20;;
24389;SDS011;12510;56.468;-3.004;2023-04-19T02:27:29;9.05;;;6.13;;
24389;SDS011;12510;56.468;-3.004;2023-04-19T02:29:56;10.77;;;6.47;;
24389;SDS011;12510;56.468;-3.004;2023-04-19T02:32:23;8.95;;;5.65;;
24389;SDS011;12510;56.468;-3.004;2023-04-19T02:34:50;8.85;;;6.13;;
24389;SDS011;12510;56.468;-3.004;2023-04-19T02:37:17;8.52;;;5.40;;
24389;SDS011;12510;56.468;-3.004;2023-04-19T02:39:44;9.77;;;5.72;;
24389;SDS011;12510;56.468;-3.004;2023-04-19T02:42:11;8.13;;;5.82;;
24389;SDS011;12510;56.468;-3.004;2023-04-19T02:44:38;9.20;;;6.35;;
24389;SDS011;12510;56.468;-3.004;2023-04-19T02:47:04;9.40;;;5.60;;
24389;SDS011;12510;56.468;-3.004;2023-04-19T02:49:31;10.13;;;6.38;;
24389;SDS011;12510;56.468;-3.004;2023-04-19T02:52:02;9.15;;;5.55;;
24389;SDS011;12510;56.468;-3.004;2023-04-19T02:54:30;11.80;;;6.63;;
24389;SDS011;12510;56.468;-3.004;2023-04-19T02:56:58;6.90;;;5.15;;
24389;SDS011;12510;56.468;-3.004;2023-04-19T02:59:24;11.98;;;7.13;;
24389;SDS011;12510;56.468;-3.004;2023-04-19T03:01:52;11.15;;;6.90;;
24389;SDS011;12510;56.468;-3.004;2023-04-19T03:04:19;9.88;;;5.97;;
24389;SDS011;12510;56.468;-3.004;2023-04-19T03:06:45;7.45;;;4.88;;
24389;SDS011;12510;56.468;-3.004;2023-04-19T03:09:12;7.13;;;4.90;;
24389;SDS011;12510;56.468;-3.004;2023-04-19T03:11:39;8.57;;;5.43;;
24389;SDS011;12510;56.468;-3.004;2023-04-19T03:14:05;8.50;;;5.55;;
24389;SDS011;12510;56.468;-3.004;2023-04-19T03:16:37;8.55;;;5.28;;
24389;SDS011;12510;56.468;-3.004;2023-04-19T03:19:03;7.38;;;5.45;;
24389;SDS011;12510;56.468;-3.004;2023-04-19T03:21:41;11.77;;;5.50;;
24389;SDS011;12510;56.468;-3.004;2023-04-19T03:24:08;7.93;;;4.78;;
24389;SDS011;12510;56.468;-3.004;2023-04-19T03:26:37;8.18;;;4.88;;
24389;SDS011;12510;56.468;-3.004;2023-04-19T03:29:04;6.70;;;4.88;;
24389;SDS011;12510;56.468;-3.004;2023-04-19T03:31:39;5.05;;;4.55;;
24389;SDS011;12510;56.468;-3.004;2023-04-19T03:36:40;7.28;;;4.57;;
24389;SDS011;12510;56.468;-3.004;2023-04-19T03:39:07;10.82;;;4.65;;
24389;SDS011;12510;56.468;-3.004;2023-04-19T03:41:35;10.27;;;5.30;;
24389;SDS011;12510;56.468;-3.004;2023-04-19T03:44:30;4.85;;;4.43;;
24389;SDS011;12510;56.468;-3.004;2023-04-19T03:46:57;8.98;;;5.07;;
24389;SDS011;12510;56.468;-3.004;2023-04-19T03:49:28;10.77;;;5.35;;
24389;SDS011;12510;56.468;-3.004;2023-04-19T03:52:02;6.25;;;4.70;;
24389;SDS011;12510;56.468;-3.004;2023-04-19T03:54:29;11.85;;;5.10;;
24389;SDS011;12510;56.468;-3.004;2023-04-19T03:56:56;8.23;;;4.47;;
24389;SDS011;12510;56.468;-3.004;2023-04-19T03:59:23;4.47;;;3.90;;
24389;SDS011;12510;56.468;-3.004;2023-04-19T04:01:50;7.90;;;4.93;;
24389;SDS011;12510;56.468;-3.004;2023-04-19T04:04:17;4.57;;;4.18;;
24389;SDS011;12510;56.468;-3.004;2023-04-19T04:06:44;7.47;;;4.13;;
24389;SDS011;12510;56.468;-3.004;2023-04-19T04:09:15;7.93;;;4.30;;
24389;SDS011;12510;56.468;-3.004;2023-04-19T04:11:42;5.78;;;3.90;;
24389;SDS011;12510;56.468;-3.004;2023-04-19T04:14:09;7.03;;;3.63;;
24389;SDS011;12510;56.468;-3.004;2023-04-19T04:16:40;8.38;;;4.75;;
24389;SDS011;12510;56.468;-3.004;2023-04-19T04:19:07;6.60;;;5.70;;
24389;SDS011;12510;56.468;-3.004;2023-04-19T04:21:37;6.07;;;4.25;;
24389;SDS011;12510;56.468;-3.004;2023-04-19T04:24:05;6.28;;;3.70;;
24389;SDS011;12510;56.468;-3.004;2023-04-19T04:26:47;6.57;;;3.92;;
24389;SDS011;12510;56.468;-3.004;2023-04-19T04:29:27;6.50;;;3.92;;
24389;SDS011;12510;56.468;-3.004;2023-04-19T04:31:56;7.72;;;4.25;;
24389;SDS011;12510;56.468;-3.004;2023-04-19T04:34:27;5.32;;;3.97;;
24389;SDS011;12510;56.468;-3.004;2023-04-19T04:37:03;5.53;;;4.13;;
24389;SDS011;12510;56.468;-3.004;2023-04-19T04:39:30;5.80;;;4.07;;
24389;SDS011;12510;56.468;-3.004;2023-04-19T04:42:01;8.43;;;4.60;;
24389;SDS011;12510;56.468;-3.004;2023-04-19T04:44:34;7.15;;;3.83;;
24389;SDS011;12510;56.468;-3.004;2023-04-19T04:47:01;7.28;;;4.38;;
24389;SDS011;12510;56.468;-3.004;2023-04-19T04:49:31;6.72;;;3.83;;
24389;SDS011;12510;56.468;-3.004;2023-04-19T04:51:58;9.18;;;4.18;;
24389;SDS011;12510;56.468;-3.004;2023-04-19T04:54:26;6.47;;;4.28;;
24389;SDS011;12510;56.468;-3.004;2023-04-19T04:56:53;7.75;;;3.97;;
24389;SDS011;12510;56.468;-3.004;2023-04-19T04:59:19;7.90;;;4.57;;
24389;SDS011;12510;56.468;-3.004;2023-04-19T05:01:48;5.90;;;4.15;;
24389;SDS011;12510;56.468;-3.004;2023-04-19T05:04:15;7.85;;;3.97;;
24389;SDS011;12510;56.468;-3.004;2023-04-19T05:06:42;7.13;;;4.30;;
24389;SDS011;12510;56.468;-3.004;2023-04-19T05:09:10;8.60;;;4.05;;
24389;SDS011;12510;56.468;-3.004;2023-04-19T05:11:36;8.60;;;4.38;;
24389;SDS011;12510;56.468;-3.004;2023-04-19T05:14:04;7.70;;;4.22;;
24389;SDS011;12510;56.468;-3.004;2023-04-19T05:16:32;4.68;;;3.70;;
24389;SDS011;12510;56.468;-3.004;2023-04-19T05:18:59;6.15;;;3.60;;
24389;SDS011;12510;56.468;-3.004;2023-04-19T05:21:27;5.68;;;3.63;;
24389;SDS011;12510;56.468;-3.004;2023-04-19T05:23:55;5.30;;;3.53;;
24389;SDS011;12510;56.468;-3.004;2023-04-19T05:26:22;7.82;;;3.78;;
24389;SDS011;12510;56.468;-3.004;2023-04-19T05:28:49;6.68;;;3.90;;
24389;SDS011;12510;56.468;-3.004;2023-04-19T05:31:35;5.90;;;3.30;;
24389;SDS011;12510;56.468;-3.004;2023-04-19T05:34:10;8.50;;;4.70;;
24389;SDS011;12510;56.468;-3.004;2023-04-19T05:36:36;4.15;;;3.13;;
24389;SDS011;12510;56.468;-3.004;2023-04-19T05:39:03;5.82;;;3.45;;
24389;SDS011;12510;56.468;-3.004;2023-04-19T05:41:30;8.25;;;3.35;;
24389;SDS011;12510;56.468;-3.004;2023-04-19T05:43:56;4.95;;;3.67;;
24389;SDS011;12510;56.468;-3.004;2023-04-19T05:46:24;6.65;;;3.30;;
24389;SDS011;12510;56.468;-3.004;2023-04-19T05:48:51;7.57;;;3.70;;
24389;SDS011;12510;56.468;-3.004;2023-04-19T05:51:26;5.40;;;3.17;;
24389;SDS011;12510;56.468;-3.004;2023-04-19T05:54:08;6.03;;;3.42;;
24389;SDS011;12510;56.468;-3.004;2023-04-19T05:56:41;6.38;;;3.63;;
24389;SDS011;12510;56.468;-3.004;2023-04-19T05:59:08;4.20;;;3.50;;
24389;SDS011;12510;56.468;-3.004;2023-04-19T06:01:36;12.15;;;4.00;;
24389;SDS011;12510;56.468;-3.004;2023-04-19T06:04:03;4.57;;;3.28;;
24389;SDS011;12510;56.468;-3.004;2023-04-19T06:06:29;3.65;;;2.97;;
24389;SDS011;12510;56.468;-3.004;2023-04-19T06:08:56;5.53;;;4.00;;
24389;SDS011;12510;56.468;-3.004;2023-04-19T06:11:23;6.25;;;3.67;;
24389;SDS011;12510;56.468;-3.004;2023-04-19T06:13:49;4.72;;;3.53;;
24389;SDS011;12510;56.468;-3.004;2023-04-19T06:16:16;5.78;;;3.38;;
24389;SDS011;12510;56.468;-3.004;2023-04-19T06:18:43;5.43;;;3.00;;
24389;SDS011;12510;56.468;-3.004;2023-04-19T06:21:10;6.30;;;3.67;;
24389;SDS011;12510;56.468;-3.004;2023-04-19T06:23:36;6.75;;;3.20;;
24389;SDS011;12510;56.468;-3.004;2023-04-19T06:26:03;4.50;;;2.95;;
24389;SDS011;12510;56.468;-3.004;2023-04-19T06:28:29;8.43;;;3.38;;
24389;SDS011;12510;56.468;-3.004;2023-04-19T06:30:56;5.80;;;3.15;;
24389;SDS011;12510;56.468;-3.004;2023-04-19T06:33:22;6.50;;;2.88;;
24389;SDS011;12510;56.468;-3.004;2023-04-19T06:35:49;4.13;;;2.90;;
24389;SDS011;12510;56.468;-3.004;2023-04-19T06:38:15;7.28;;;2.63;;
24389;SDS011;12510;56.468;-3.004;2023-04-19T06:40:42;5.20;;;2.50;;
24389;SDS011;12510;56.468;-3.004;2023-04-19T06:43:08;2.85;;;2.47;;
24389;SDS011;12510;56.468;-3.004;2023-04-19T06:45:35;7.15;;;3.05;;
24389;SDS011;12510;56.468;-3.004;2023-04-19T06:48:01;5.65;;;2.88;;
24389;SDS011;12510;56.468;-3.004;2023-04-19T06:50:28;4.72;;;2.90;;
24389;SDS011;12510;56.468;-3.004;2023-04-19T06:52:54;5.40;;;2.85;;
24389;SDS011;12510;56.468;-3.004;2023-04-19T06:55:21;7.20;;;2.30;;
24389;SDS011;12510;56.468;-3.004;2023-04-19T06:57:47;4.13;;;2.50;;
24389;SDS011;12510;56.468;-3.004;2023-04-19T07:00:14;5.97;;;2.17;;
24389;SDS011;12510;56.468;-3.004;2023-04-19T07:02:41;3.25;;;2.67;;
24389;SDS011;12510;56.468;-3.004;2023-04-19T07:05:07;4.82;;;3.45;;
24389;SDS011;12510;56.468;-3.004;2023-04-19T07:07:34;3.92;;;2.35;;
24389;SDS011;12510;56.468;-3.004;2023-04-19T07:10:02;5.95;;;2.50;;
24389;SDS011;12510;56.468;-3.004;2023-04-19T07:12:29;3.40;;;2.00;;
24389;SDS011;12510;56.468;-3.004;2023-04-19T07:14:55;3.00;;;2.45;;
24389;SDS011;12510;56.468;-3.004;2023-04-19T07:17:22;4.05;;;2.70;;
24389;SDS011;12510;56.468;-3.004;2023-04-19T07:19:49;6.47;;;3.10;;
24389;SDS011;12510;56.468;-3.004;2023-04-19T07:22:15;7.78;;;2.40;;
24389;SDS011;12510;56.468;-3.004;2023-04-19T07:24:42;5.35;;;2.50;;
24389;SDS011;12510;56.468;-3.004;2023-04-19T07:27:09;6.88;;;3.85;;
24389;SDS011;12510;56.468;-3.004;2023-04-19T07:29:36;3.67;;;2.35;;
24389;SDS011;12510;56.468;-3.004;2023-04-19T07:32:02;3.90;;;2.58;;
24389;SDS011;12510;56.468;-3.004;2023-04-19T07:34:30;16.98;;;3.72;;
24389;SDS011;12510;56.468;-3.004;2023-04-19T07:36:56;6.38;;;2.40;;
24389;SDS011;12510;56.468;-3.004;2023-04-19T07:39:22;3.80;;;2.03;;
24389;SDS011;12510;56.468;-3.004;2023-04-19T07:41:49;3.05;;;2.42;;
24389;SDS011;12510;56.468;-3.004;2023-04-19T07:44:15;6.10;;;2.97;;
24389;SDS011;12510;56.468;-3.004;2023-04-19T07:46:42;3.22;;;2.10;;
24389;SDS011;12510;56.468;-3.004;2023-04-19T07:49:10;6.57;;;2.60;;
24389;SDS011;12510;56.468;-3.004;2023-04-19T07:51:36;3.50;;;1.95;;
24389;SDS011;12510;56.468;-3.004;2023-04-19T07:54:03;4.50;;;2.13;;
24389;SDS011;12510;56.468;-3.004;2023-04-19T07:56:29;5.63;;;2.63;;
24389;SDS011;12510;56.468;-3.004;2023-04-19T07:58:55;7.10;;;2.10;;
24389;SDS011;12510;56.468;-3.004;2023-04-19T08:01:22;3.95;;;1.70;;
24389;SDS011;12510;56.468;-3.004;2023-04-19T08:03:48;5.72;;;2.10;;
24389;SDS011;12510;56.468;-3.004;2023-04-19T08:06:15;3.42;;;1.75;;
24389;SDS011;12510;56.468;-3.004;2023-04-19T08:08:42;6.47;;;2.20;;
24389;SDS011;12510;56.468;-3.004;2023-04-19T08:11:09;4.55;;;2.00;;
24389;SDS011;12510;56.468;-3.004;2023-04-19T08:13:35;4.80;;;1.98;;
24389;SDS011;12510;56.468;-3.004;2023-04-19T08:16:02;5.47;;;2.45;;
24389;SDS011;12510;56.468;-3.004;2023-04-19T08:18:29;4.20;;;1.50;;
24389;SDS011;12510;56.468;-3.004;2023-04-19T08:20:56;7.53;;;2.22;;
24389;SDS011;12510;56.468;-3.004;2023-04-19T08:23:23;3.22;;;1.90;;
24389;SDS011;12510;56.468;-3.004;2023-04-19T08:25:50;2.45;;;1.67;;
24389;SDS011;12510;56.468;-3.004;2023-04-19T08:28:17;3.75;;;2.33;;
24389;SDS011;12510;56.468;-3.004;2023-04-19T08:30:44;16.42;;;2.85;;
24389;SDS011;12510;56.468;-3.004;2023-04-19T08:33:10;4.35;;;2.08;;
24389;SDS011;12510;56.468;-3.004;2023-04-19T08:35:37;7.30;;;2.28;;
24389;SDS011;12510;56.468;-3.004;2023-04-19T08:38:06;11.60;;;2.58;;
24389;SDS011;12510;56.468;-3.004;2023-04-19T08:40:33;3.95;;;1.92;;
24389;SDS011;12510;56.468;-3.004;2023-04-19T08:43:04;3.72;;;1.95;;
24389;SDS011;12510;56.468;-3.004;2023-04-19T08:45:31;5.78;;;2.60;;
24389;SDS011;12510;56.468;-3.004;2023-04-19T08:47:58;6.15;;;2.05;;
24389;SDS011;12510;56.468;-3.004;2023-04-19T08:50:26;3.67;;;1.70;;
24389;SDS011;12510;56.468;-3.004;2023-04-19T08:52:53;6.80;;;2.45;;
24389;SDS011;12510;56.468;-3.004;2023-04-19T08:55:20;4.18;;;1.90;;
24389;SDS011;12510;56.468;-3.004;2023-04-19T08:57:46;6.30;;;2.35;;
24389;SDS011;12510;56.468;-3.004;2023-04-19T09:00:13;8.85;;;2.42;;
24389;SDS011;12510;56.468;-3.004;2023-04-19T09:02:47;3.28;;;2.00;;
24389;SDS011;12510;56.468;-3.004;2023-04-19T09:05:18;2.97;;;1.92;;
24389;SDS011;12510;56.468;-3.004;2023-04-19T09:07:45;7.45;;;1.92;;
24389;SDS011;12510;56.468;-3.004;2023-04-19T09:10:15;4.78;;;2.05;;
24389;SDS011;12510;56.468;-3.004;2023-04-19T09:12:58;6.25;;;2.00;;
24389;SDS011;12510;56.468;-3.004;2023-04-19T09:15:39;4.53;;;1.95;;
24389;SDS011;12510;56.468;-3.004;2023-04-19T09:18:08;10.38;;;2.03;;
24389;SDS011;12510;56.468;-3.004;2023-04-19T09:20:39;3.10;;;1.90;;
24389;SDS011;12510;56.468;-3.004;2023-04-19T09:23:08;2.63;;;1.75;;
24389;SDS011;12510;56.468;-3.004;2023-04-19T09:25:38;4.75;;;1.77;;
24389;SDS011;12510;56.468;-3.004;2023-04-19T09:28:11;3.47;;;2.05;;
24389;SDS011;12510;56.468;-3.004;2023-04-19T09:30:39;4.97;;;1.95;;
24389;SDS011;12510;56.468;-3.004;2023-04-19T09:33:06;4.30;;;1.90;;
24389;SDS011;12510;56.468;-3.004;2023-04-19T09:38:07;10.30;;;2.50;;
24389;SDS011;12510;56.468;-3.004;2023-04-19T09:40:34;8.55;;;2.08;;
24389;SDS011;12510;56.468;-3.004;2023-04-19T09:43:01;4.63;;;2.33;;
24389;SDS011;12510;56.468;-3.004;2023-04-19T09:45:49;12.70;;;2.50;;
24389;SDS011;12510;56.468;-3.004;2023-04-19T09:48:15;3.88;;;2.13;;
24389;SDS011;12510;56.468;-3.004;2023-04-19T09:51:00;10.82;;;2.15;;
24389;SDS011;12510;56.468;-3.004;2023-04-19T09:53:28;2.75;;;1.58;;
24389;SDS011;12510;56.468;-3.004;2023-04-19T09:55:58;4.10;;;1.80;;
24389;SDS011;12510;56.468;-3.004;2023-04-19T09:58:26;4.70;;;3.22;;
24389;SDS011;12510;56.468;-3.004;2023-04-19T10:00:52;5.70;;;2.38;;
24389;SDS011;12510;56.468;-3.004;2023-04-19T10:03:21;5.72;;;2.60;;
24389;SDS011;12510;56.468;-3.004;2023-04-19T10:05:51;7.25;;;2.25;;
24389;SDS011;12510;56.468;-3.004;2023-04-19T10:08:17;6.65;;;1.92;;
24389;SDS011;12510;56.468;-3.004;2023-04-19T10:10:44;3.55;;;2.13;;
24389;SDS011;12510;56.468;-3.004;2023-04-19T10:13:15;7.50;;;2.47;;
24389;SDS011;12510;56.468;-3.004;2023-04-19T10:15:48;4.47;;;2.30;;
24389;SDS011;12510;56.468;-3.004;2023-04-19T10:18:14;7.13;;;2.40;;
24389;SDS011;12510;56.468;-3.004;2023-04-19T10:20:52;6.20;;;1.75;;
24389;SDS011;12510;56.468;-3.004;2023-04-19T10:23:20;15.73;;;3.45;;
24389;SDS011;12510;56.468;-3.004;2023-04-19T10:25:47;3.13;;;2.13;;
24389;SDS011;12510;56.468;-3.004;2023-04-19T10:28:14;4.10;;;1.73;;
24389;SDS011;12510;56.468;-3.004;2023-04-19T10:30:51;4.05;;;2.53;;
24389;SDS011;12510;56.468;-3.004;2023-04-19T10:33:29;9.57;;;2.15;;
24389;SDS011;12510;56.468;-3.004;2023-04-19T10:35:59;4.25;;;2.13;;
24389;SDS011;12510;56.468;-3.004;2023-04-19T10:38:36;3.47;;;1.92;;
24389;SDS011;12510;56.468;-3.004;2023-04-19T10:41:20;5.22;;;2.40;;
24389;SDS011;12510;56.468;-3.004;2023-04-19T10:51:20;6.82;;;1.75;;
24389;SDS011;12510;56.468;-3.004;2023-04-19T10:53:49;5.80;;;2.30;;
24389;SDS011;12510;56.468;-3.004;2023-04-19T10:56:20;4.22;;;1.80;;
24389;SDS011;12510;56.468;-3.004;2023-04-19T11:07:16;4.60;;;2.65;;
24389;SDS011;12510;56.468;-3.004;2023-04-19T11:09:49;3.97;;;2.03;;
24389;SDS011;12510;56.468;-3.004;2023-04-19T11:12:18;5.78;;;2.85;;
24389;SDS011;12510;56.468;-3.004;2023-04-19T11:14:52;7.00;;;2.65;;
24389;SDS011;12510;56.468;-3.004;2023-04-19T11:17:26;4.95;;;2.10;;
24389;SDS011;12510;56.468;-3.004;2023-04-19T11:22:37;5.72;;;2.00;;
24389;SDS011;12510;56.468;-3.004;2023-04-19T11:25:16;4.55;;;2.25;;
24389;SDS011;12510;56.468;-3.004;2023-04-19T11:27:45;8.63;;;2.35;;
24389;SDS011;12510;56.468;-3.004;2023-04-19T11:30:16;5.40;;;2.63;;
24389;SDS011;12510;56.468;-3.004;2023-04-19T11:32:48;6.15;;;1.90;;
24389;SDS011;12510;56.468;-3.004;2023-04-19T11:35:21;4.65;;;2.25;;
24389;SDS011;12510;56.468;-3.004;2023-04-19T11:37:52;2.72;;;1.90;;
24389;SDS011;12510;56.468;-3.004;2023-04-19T11:40:22;5.25;;;1.95;;
24389;SDS011;12510;56.468;-3.004;2023-04-19T11:42:54;7.18;;;2.20;;
24389;SDS011;12510;56.468;-3.004;2023-04-19T11:45:28;8.38;;;2.85;;
24389;SDS011;12510;56.468;-3.004;2023-04-19T11:47:56;5.57;;;2.10;;
24389;SDS011;12510;56.468;-3.004;2023-04-19T11:50:30;8.25;;;2.83;;
24389;SDS011;12510;56.468;-3.004;2023-04-19T11:55:49;4.55;;;2.20;;
24389;SDS011;12510;56.468;-3.004;2023-04-19T12:01:08;3.53;;;1.83;;
24389;SDS011;12510;56.468;-3.004;2023-04-19T12:03:43;5.90;;;2.28;;
24389;SDS011;12510;56.468;-3.004;2023-04-19T12:06:15;2.63;;;2.05;;
24389;SDS011;12510;56.468;-3.004;2023-04-19T12:08:47;5.18;;;2.15;;
24389;SDS011;12510;56.468;-3.004;2023-04-19T12:11:15;4.95;;;1.77;;
24389;SDS011;12510;56.468;-3.004;2023-04-19T12:13:43;4.78;;;2.20;;
24389;SDS011;12510;56.468;-3.004;2023-04-19T12:16:10;7.28;;;2.30;;
24389;SDS011;12510;56.468;-3.004;2023-04-19T12:18:50;8.07;;;2.53;;
24389;SDS011;12510;56.468;-3.004;2023-04-19T12:21:23;7.57;;;1.92;;
24389;SDS011;12510;56.468;-3.004;2023-04-19T12:23:59;4.20;;;2.15;;
24389;SDS011;12510;56.468;-3.004;2023-04-19T12:26:26;5.72;;;2.30;;
24389;SDS011;12510;56.468;-3.004;2023-04-19T12:28:54;6.43;;;2.30;;
24389;SDS011;12510;56.468;-3.004;2023-04-19T12:31:21;4.72;;;2.42;;
24389;SDS011;12510;56.468;-3.004;2023-04-19T12:33:48;4.68;;;2.20;;
24389;SDS011;12510;56.468;-3.004;2023-04-19T12:36:15;5.95;;;2.20;;
24389;SDS011;12510;56.468;-3.004;2023-04-19T12:38:41;10.38;;;2.90;;
24389;SDS011;12510;56.468;-3.004;2023-04-19T12:41:08;6.10;;;2.70;;
24389;SDS011;12510;56.468;-3.004;2023-04-19T12:43:34;9.40;;;2.72;;
24389;SDS011;12510;56.468;-3.004;2023-04-19T12:46:01;60.47;;;7.88;;
24389;SDS011;12510;56.468;-3.004;2023-04-19T12:48:27;62.03;;;10.00;;
24389;SDS011;12510;56.468;-3.004;2023-04-19T12:50:54;7.03;;;2.03;;
24389;SDS011;12510;56.468;-3.004;2023-04-19T12:53:20;4.60;;;2.20;;
24389;SDS011;12510;56.468;-3.004;2023-04-19T12:55:49;4.18;;;2.33;;
24389;SDS011;12510;56.468;-3.004;2023-04-19T12:58:16;5.60;;;1.95;;
24389;SDS011;12510;56.468;-3.004;2023-04-19T13:00:43;9.30;;;2.70;;
24389;SDS011;12510;56.468;-3.004;2023-04-19T13:03:10;5.70;;;2.88;;
24389;SDS011;12510;56.468;-3.004;2023-04-19T13:05:39;7.10;;;2.73;;
24389;SDS011;12510;56.468;-3.004;2023-04-19T13:08:05;4.35;;;2.28;;
24389;SDS011;12510;56.468;-3.004;2023-04-19T13:10:32;4.53;;;2.00;;
24389;SDS011;12510;56.468;-3.004;2023-04-19T13:12:58;6.90;;;2.58;;
24389;SDS011;12510;56.468;-3.004;2023-04-19T13:15:25;6.00;;;1.98;;
24389;SDS011;12510;56.468;-3.004;2023-04-19T13:17:53;9.18;;;2.53;;
24389;SDS011;12510;56.468;-3.004;2023-04-19T13:20:19;28.60;;;3.90;;
24389;SDS011;12510;56.468;-3.004;2023-04-19T13:22:46;5.38;;;2.25;;
24389;SDS011;12510;56.468;-3.004;2023-04-19T13:25:12;6.40;;;2.20;;
24389;SDS011;12510;56.468;-3.004;2023-04-19T13:27:39;8.18;;;3.00;;
24389;SDS011;12510;56.468;-3.004;2023-04-19T13:30:05;5.60;;;2.47;;
24389;SDS011;12510;56.468;-3.004;2023-04-19T13:32:32;3.92;;;1.75;;
24389;SDS011;12510;56.468;-3.004;2023-04-19T13:34:59;10.77;;;3.15;;
24389;SDS011;12510;56.468;-3.004;2023-04-19T13:37:25;5.72;;;2.10;;
24389;SDS011;12510;56.468;-3.004;2023-04-19T13:39:52;3.15;;;1.60;;
24389;SDS011;12510;56.468;-3.004;2023-04-19T13:42:18;7.78;;;1.98;;
24389;SDS011;12510;56.468;-3.004;2023-04-19T13:44:45;3.20;;;1.60;;
24389;SDS011;12510;56.468;-3.004;2023-04-19T13:47:11;5.07;;;2.03;;
24389;SDS011;12510;56.468;-3.004;2023-04-19T13:49:38;2.70;;;1.70;;
24389;SDS011;12510;56.468;-3.004;2023-04-19T13:52:05;3.50;;;1.75;;
24389;SDS011;12510;56.468;-3.004;2023-04-19T13:54:31;10.70;;;2.78;;
24389;SDS011;12510;56.468;-3.004;2023-04-19T13:56:58;4.03;;;1.80;;
24389;SDS011;12510;56.468;-3.004;2023-04-19T13:59:24;4.63;;;1.35;;
24389;SDS011;12510;56.468;-3.004;2023-04-19T14:01:51;2.35;;;1.30;;
24389;SDS011;12510;56.468;-3.004;2023-04-19T14:04:20;3.00;;;1.60;;
24389;SDS011;12510;56.468;-3.004;2023-04-19T14:06:47;2.47;;;1.20;;
24389;SDS011;12510;56.468;-3.004;2023-04-19T14:09:14;5.18;;;1.55;;
24389;SDS011;12510;56.468;-3.004;2023-04-19T14:11:40;4.20;;;1.27;;
24389;SDS011;12510;56.468;-3.004;2023-04-19T14:14:06;7.47;;;1.60;;
24389;SDS011;12510;56.468;-3.004;2023-04-19T14:16:33;4.00;;;1.40;;
24389;SDS011;12510;56.468;-3.004;2023-04-19T14:18:59;4.30;;;1.60;;
24389;SDS011;12510;56.468;-3.004;2023-04-19T14:21:26;4.25;;;1.63;;
24389;SDS011;12510;56.468;-3.004;2023-04-19T14:23:54;5.75;;;1.67;;
24389;SDS011;12510;56.468;-3.004;2023-04-19T14:26:20;3.40;;;1.70;;
24389;SDS011;12510;56.468;-3.004;2023-04-19T14:28:47;2.47;;;1.45;;
24389;SDS011;12510;56.468;-3.004;2023-04-19T14:31:13;3.83;;;1.65;;
24389;SDS011;12510;56.468;-3.004;2023-04-19T14:33:40;3.88;;;1.75;;
24389;SDS011;12510;56.468;-3.004;2023-04-19T14:36:06;4.30;;;2.28;;
24389;SDS011;12510;56.468;-3.004;2023-04-19T14:38:33;3.85;;;1.60;;
24389;SDS011;12510;56.468;-3.004;2023-04-19T14:41:00;3.42;;;1.67;;
24389;SDS011;12510;56.468;-3.004;2023-04-19T14:43:28;2.92;;;1.65;;
24389;SDS011;12510;56.468;-3.004;2023-04-19T14:45:54;4.05;;;1.98;;
24389;SDS011;12510;56.468;-3.004;2023-04-19T14:48:21;5.20;;;1.98;;
24389;SDS011;12510;56.468;-3.004;2023-04-19T14:50:48;7.50;;;1.88;;
24389;SDS011;12510;56.468;-3.004;2023-04-19T14:53:14;11.90;;;2.53;;
24389;SDS011;12510;56.468;-3.004;2023-04-19T14:55:41;5.63;;;1.77;;
24389;SDS011;12510;56.468;-3.004;2023-04-19T14:58:07;4.40;;;1.55;;
24389;SDS011;12510;56.468;-3.004;2023-04-19T15:00:34;1.90;;;1.38;;
24389;SDS011;12510;56.468;-3.004;2023-04-19T15:03:00;5.47;;;2.25;;
24389;SDS011;12510;56.468;-3.004;2023-04-19T15:05:27;3.83;;;1.55;;
24389;SDS011;12510;56.468;-3.004;2023-04-19T15:07:54;4.38;;;1.88;;